Pagina principale
METAR-TAF:

METAR-TAF

Aeroporti :

Sion, Svizzera

latitudine: 46-13N, longitudine: 007-20E, altezza: 482 m

Osservazione

Il bollettino è stato emesso 15 minuti fa, alle 09:50 UTC
Vento 2 kt da direzioni variabili
Temperature 6°C
Umidità 81%
Pressione 1016 hPa
Visibilità 10 km o più
Nuvoloso ad un'altezza di 3000 ft

METAR: LSGS 090950Z VRB02KT 9999 BKN030 06/03 Q1016

Ora: 11:05 (10:05 UTC)

Previsione

Il bollettino è stato emesso 1 ora e 40 minuti fa, alle 08:25 UTC
Previsione valida dal 09 alle 09 UTC al 09 alle 18 UTC
Vento 2 kt da direzioni variabili
Visibilità 10 km o più
Nuvoloso ad un'altezza di 3000 ft

TAF: LSGS 090825Z 0909/0918 VRB02KT 9999 BKN030

Osservazioni e previsioni meteorologiche di più di 4000 aeroporti (messaggi METAR e TAF).

Le stazioni disponibili sono rappresentate dai dischi gialli e rossi sulla carta.

Puntare il mouse per vedere il nome della stazione.

Clicca sopra per visualizzare le osservazioni e previsioni meteorologiche.

Per cambiare la mappa : fare clic sui pulsanti verdi con una croce nera per ingrandire, il pulsante verde con un trattino per diminuire, o sulla freccia verde per le mappe adiacenti.


METAR-TAF: